sensor_id;sensor_type;location;lat;lon;timestamp;P1;durP1;ratioP1;P2;durP2;ratioP2
28960;SDS011;16068;42.896;20.868;2023-03-01T00:00:24;24.58;;;10.75;;
28960;SDS011;16068;42.896;20.868;2023-03-01T00:03:10;18.80;;;9.27;;
28960;SDS011;16068;42.896;20.868;2023-03-01T00:05:57;22.63;;;9.57;;
28960;SDS011;16068;42.896;20.868;2023-03-01T00:08:43;17.45;;;9.45;;
28960;SDS011;16068;42.896;20.868;2023-03-01T00:11:30;19.23;;;9.13;;
28960;SDS011;16068;42.896;20.868;2023-03-01T00:14:17;24.25;;;9.75;;
28960;SDS011;16068;42.896;20.868;2023-03-01T00:17:03;21.60;;;10.18;;
28960;SDS011;16068;42.896;20.868;2023-03-01T00:19:50;17.83;;;9.27;;
28960;SDS011;16068;42.896;20.868;2023-03-01T00:22:36;25.20;;;9.63;;
28960;SDS011;16068;42.896;20.868;2023-03-01T00:25:22;20.88;;;9.95;;
28960;SDS011;16068;42.896;20.868;2023-03-01T00:28:08;16.77;;;9.40;;
28960;SDS011;16068;42.896;20.868;2023-03-01T00:30:54;17.88;;;9.15;;
28960;SDS011;16068;42.896;20.868;2023-03-01T00:33:40;15.55;;;8.85;;
28960;SDS011;16068;42.896;20.868;2023-03-01T00:36:27;19.20;;;8.82;;
28960;SDS011;16068;42.896;20.868;2023-03-01T00:39:15;20.40;;;9.55;;
28960;SDS011;16068;42.896;20.868;2023-03-01T00:42:02;18.83;;;8.65;;
28960;SDS011;16068;42.896;20.868;2023-03-01T00:44:48;13.88;;;8.45;;
28960;SDS011;16068;42.896;20.868;2023-03-01T00:47:34;17.45;;;9.25;;
28960;SDS011;16068;42.896;20.868;2023-03-01T00:50:20;17.65;;;8.02;;
28960;SDS011;16068;42.896;20.868;2023-03-01T00:53:06;16.40;;;7.43;;
28960;SDS011;16068;42.896;20.868;2023-03-01T00:55:52;15.82;;;7.82;;
28960;SDS011;16068;42.896;20.868;2023-03-01T00:58:37;20.65;;;7.50;;
28960;SDS011;16068;42.896;20.868;2023-03-01T01:01:26;13.88;;;7.65;;
28960;SDS011;16068;42.896;20.868;2023-03-01T01:04:16;16.10;;;8.48;;
28960;SDS011;16068;42.896;20.868;2023-03-01T01:07:02;16.95;;;7.70;;
28960;SDS011;16068;42.896;20.868;2023-03-01T01:09:48;15.20;;;7.60;;
28960;SDS011;16068;42.896;20.868;2023-03-01T01:12:36;16.40;;;7.25;;
28960;SDS011;16068;42.896;20.868;2023-03-01T01:15:22;18.58;;;8.27;;
28960;SDS011;16068;42.896;20.868;2023-03-01T01:18:08;18.98;;;7.25;;
28960;SDS011;16068;42.896;20.868;2023-03-01T01:20:54;13.57;;;6.70;;
28960;SDS011;16068;42.896;20.868;2023-03-01T01:23:41;16.75;;;6.72;;
28960;SDS011;16068;42.896;20.868;2023-03-01T01:26:29;20.42;;;8.30;;
28960;SDS011;16068;42.896;20.868;2023-03-01T01:29:17;12.90;;;7.45;;
28960;SDS011;16068;42.896;20.868;2023-03-01T01:32:03;11.85;;;6.45;;
28960;SDS011;16068;42.896;20.868;2023-03-01T01:34:49;11.68;;;6.72;;
28960;SDS011;16068;42.896;20.868;2023-03-01T01:37:35;13.75;;;6.88;;
28960;SDS011;16068;42.896;20.868;2023-03-01T01:40:21;13.98;;;7.10;;
28960;SDS011;16068;42.896;20.868;2023-03-01T01:43:09;16.25;;;6.25;;
28960;SDS011;16068;42.896;20.868;2023-03-01T01:46:46;13.15;;;6.38;;
28960;SDS011;16068;42.896;20.868;2023-03-01T01:52:09;11.18;;;5.97;;
28960;SDS011;16068;42.896;20.868;2023-03-01T01:55:26;14.00;;;6.00;;
28960;SDS011;16068;42.896;20.868;2023-03-01T01:58:14;13.98;;;5.82;;
28960;SDS011;16068;42.896;20.868;2023-03-01T02:01:01;10.70;;;5.50;;
28960;SDS011;16068;42.896;20.868;2023-03-01T02:03:48;13.13;;;6.00;;
28960;SDS011;16068;42.896;20.868;2023-03-01T02:06:39;13.25;;;5.78;;
28960;SDS011;16068;42.896;20.868;2023-03-01T02:09:27;18.17;;;5.97;;
28960;SDS011;16068;42.896;20.868;2023-03-01T02:12:14;18.40;;;6.72;;
28960;SDS011;16068;42.896;20.868;2023-03-01T02:15:03;13.13;;;6.38;;
28960;SDS011;16068;42.896;20.868;2023-03-01T02:17:49;11.95;;;5.75;;
28960;SDS011;16068;42.896;20.868;2023-03-01T02:27:16;14.13;;;6.00;;
28960;SDS011;16068;42.896;20.868;2023-03-01T02:30:03;14.07;;;6.05;;
28960;SDS011;16068;42.896;20.868;2023-03-01T02:32:49;11.90;;;5.57;;
28960;SDS011;16068;42.896;20.868;2023-03-01T02:35:37;17.83;;;5.72;;
28960;SDS011;16068;42.896;20.868;2023-03-01T02:38:24;17.48;;;6.05;;
28960;SDS011;16068;42.896;20.868;2023-03-01T02:41:14;12.48;;;5.70;;
28960;SDS011;16068;42.896;20.868;2023-03-01T02:44:02;21.02;;;5.88;;
28960;SDS011;16068;42.896;20.868;2023-03-01T02:46:49;16.77;;;5.70;;
28960;SDS011;16068;42.896;20.868;2023-03-01T02:49:38;17.33;;;6.53;;
28960;SDS011;16068;42.896;20.868;2023-03-01T02:55:14;11.15;;;5.78;;
28960;SDS011;16068;42.896;20.868;2023-03-01T02:58:02;16.63;;;5.90;;
28960;SDS011;16068;42.896;20.868;2023-03-01T03:00:51;13.63;;;5.78;;
28960;SDS011;16068;42.896;20.868;2023-03-01T03:03:37;12.57;;;5.93;;
28960;SDS011;16068;42.896;20.868;2023-03-01T03:06:23;14.93;;;6.40;;
28960;SDS011;16068;42.896;20.868;2023-03-01T03:09:09;10.20;;;5.35;;
28960;SDS011;16068;42.896;20.868;2023-03-01T03:11:56;16.60;;;5.68;;
28960;SDS011;16068;42.896;20.868;2023-03-01T03:14:42;10.93;;;5.97;;
28960;SDS011;16068;42.896;20.868;2023-03-01T03:17:29;14.85;;;6.22;;
28960;SDS011;16068;42.896;20.868;2023-03-01T03:20:15;15.25;;;5.97;;
28960;SDS011;16068;42.896;20.868;2023-03-01T03:23:06;16.25;;;6.50;;
28960;SDS011;16068;42.896;20.868;2023-03-01T03:25:51;18.25;;;5.63;;
28960;SDS011;16068;42.896;20.868;2023-03-01T03:28:37;16.40;;;5.88;;
28960;SDS011;16068;42.896;20.868;2023-03-01T03:31:25;17.98;;;6.18;;
28960;SDS011;16068;42.896;20.868;2023-03-01T03:34:11;15.48;;;6.15;;
28960;SDS011;16068;42.896;20.868;2023-03-01T03:37:03;13.60;;;6.00;;
28960;SDS011;16068;42.896;20.868;2023-03-01T03:40:09;14.25;;;6.50;;
28960;SDS011;16068;42.896;20.868;2023-03-01T03:43:01;9.77;;;6.00;;
28960;SDS011;16068;42.896;20.868;2023-03-01T03:45:50;17.58;;;6.55;;
28960;SDS011;16068;42.896;20.868;2023-03-01T03:48:41;13.75;;;6.60;;
28960;SDS011;16068;42.896;20.868;2023-03-01T03:51:29;13.45;;;6.50;;
28960;SDS011;16068;42.896;20.868;2023-03-01T03:54:15;14.55;;;6.10;;
28960;SDS011;16068;42.896;20.868;2023-03-01T03:57:01;11.98;;;6.38;;
28960;SDS011;16068;42.896;20.868;2023-03-01T03:59:46;13.25;;;6.13;;
28960;SDS011;16068;42.896;20.868;2023-03-01T04:02:32;16.95;;;6.80;;
28960;SDS011;16068;42.896;20.868;2023-03-01T04:05:18;18.60;;;7.10;;
28960;SDS011;16068;42.896;20.868;2023-03-01T04:08:05;18.48;;;7.05;;
28960;SDS011;16068;42.896;20.868;2023-03-01T04:11:01;16.88;;;6.68;;
28960;SDS011;16068;42.896;20.868;2023-03-01T04:14:07;14.85;;;6.80;;
28960;SDS011;16068;42.896;20.868;2023-03-01T04:16:53;16.65;;;7.60;;
28960;SDS011;16068;42.896;20.868;2023-03-01T04:19:39;23.10;;;6.90;;
28960;SDS011;16068;42.896;20.868;2023-03-01T04:22:25;16.80;;;8.10;;
28960;SDS011;16068;42.896;20.868;2023-03-01T04:25:14;16.92;;;7.40;;
28960;SDS011;16068;42.896;20.868;2023-03-01T04:28:00;18.10;;;6.85;;
28960;SDS011;16068;42.896;20.868;2023-03-01T04:30:47;22.10;;;7.40;;
28960;SDS011;16068;42.896;20.868;2023-03-01T04:33:33;18.98;;;7.03;;
28960;SDS011;16068;42.896;20.868;2023-03-01T04:36:20;20.67;;;8.02;;
28960;SDS011;16068;42.896;20.868;2023-03-01T04:39:07;15.38;;;6.80;;
28960;SDS011;16068;42.896;20.868;2023-03-01T04:41:58;17.00;;;6.07;;
28960;SDS011;16068;42.896;20.868;2023-03-01T04:44:44;12.02;;;6.55;;
28960;SDS011;16068;42.896;20.868;2023-03-01T04:47:30;11.82;;;5.70;;
28960;SDS011;16068;42.896;20.868;2023-03-01T04:50:16;17.60;;;7.00;;
28960;SDS011;16068;42.896;20.868;2023-03-01T04:53:05;17.70;;;6.85;;
28960;SDS011;16068;42.896;20.868;2023-03-01T04:55:51;12.30;;;5.72;;
28960;SDS011;16068;42.896;20.868;2023-03-01T04:58:37;17.88;;;6.20;;
28960;SDS011;16068;42.896;20.868;2023-03-01T05:01:23;19.70;;;5.95;;
28960;SDS011;16068;42.896;20.868;2023-03-01T05:04:09;13.13;;;5.88;;
28960;SDS011;16068;42.896;20.868;2023-03-01T05:06:58;9.15;;;5.45;;
28960;SDS011;16068;42.896;20.868;2023-03-01T05:09:46;11.15;;;6.00;;
28960;SDS011;16068;42.896;20.868;2023-03-01T05:12:35;22.13;;;6.20;;
28960;SDS011;16068;42.896;20.868;2023-03-01T05:15:23;11.70;;;5.80;;
28960;SDS011;16068;42.896;20.868;2023-03-01T05:18:13;18.73;;;6.50;;
28960;SDS011;16068;42.896;20.868;2023-03-01T05:21:04;17.13;;;6.55;;
28960;SDS011;16068;42.896;20.868;2023-03-01T05:23:58;25.30;;;8.10;;
28960;SDS011;16068;42.896;20.868;2023-03-01T05:26:44;15.65;;;6.43;;
28960;SDS011;16068;42.896;20.868;2023-03-01T05:29:30;24.80;;;6.90;;
28960;SDS011;16068;42.896;20.868;2023-03-01T05:32:17;17.42;;;7.38;;
28960;SDS011;16068;42.896;20.868;2023-03-01T05:35:03;17.73;;;7.35;;
28960;SDS011;16068;42.896;20.868;2023-03-01T05:37:49;33.10;;;8.82;;
28960;SDS011;16068;42.896;20.868;2023-03-01T05:40:35;12.75;;;6.90;;
28960;SDS011;16068;42.896;20.868;2023-03-01T05:43:21;14.80;;;6.80;;
28960;SDS011;16068;42.896;20.868;2023-03-01T05:46:06;16.83;;;7.10;;
28960;SDS011;16068;42.896;20.868;2023-03-01T05:48:56;24.65;;;7.50;;
28960;SDS011;16068;42.896;20.868;2023-03-01T05:51:43;17.40;;;7.03;;
28960;SDS011;16068;42.896;20.868;2023-03-01T05:54:32;19.63;;;6.47;;
28960;SDS011;16068;42.896;20.868;2023-03-01T05:57:18;33.25;;;8.65;;
28960;SDS011;16068;42.896;20.868;2023-03-01T06:00:07;11.50;;;6.22;;
28960;SDS011;16068;42.896;20.868;2023-03-01T06:02:56;23.60;;;6.85;;
28960;SDS011;16068;42.896;20.868;2023-03-01T06:05:43;24.00;;;7.53;;
28960;SDS011;16068;42.896;20.868;2023-03-01T06:08:30;16.75;;;7.10;;
28960;SDS011;16068;42.896;20.868;2023-03-01T06:11:15;21.20;;;5.78;;
28960;SDS011;16068;42.896;20.868;2023-03-01T06:14:02;13.35;;;7.05;;
28960;SDS011;16068;42.896;20.868;2023-03-01T06:16:48;14.60;;;6.43;;
28960;SDS011;16068;42.896;20.868;2023-03-01T06:19:34;19.90;;;7.43;;
28960;SDS011;16068;42.896;20.868;2023-03-01T06:22:20;16.25;;;6.35;;
28960;SDS011;16068;42.896;20.868;2023-03-01T06:25:06;29.80;;;7.47;;
28960;SDS011;16068;42.896;20.868;2023-03-01T06:27:53;16.17;;;7.78;;
28960;SDS011;16068;42.896;20.868;2023-03-01T06:30:39;15.32;;;6.53;;
28960;SDS011;16068;42.896;20.868;2023-03-01T06:33:24;14.35;;;6.78;;
28960;SDS011;16068;42.896;20.868;2023-03-01T06:36:10;24.60;;;6.75;;
28960;SDS011;16068;42.896;20.868;2023-03-01T06:38:56;18.15;;;6.90;;
28960;SDS011;16068;42.896;20.868;2023-03-01T06:41:42;19.15;;;8.40;;
28960;SDS011;16068;42.896;20.868;2023-03-01T06:44:27;14.82;;;6.30;;
28960;SDS011;16068;42.896;20.868;2023-03-01T06:47:13;15.60;;;6.68;;
28960;SDS011;16068;42.896;20.868;2023-03-01T06:49:59;12.80;;;5.97;;
28960;SDS011;16068;42.896;20.868;2023-03-01T06:52:46;18.70;;;6.18;;
28960;SDS011;16068;42.896;20.868;2023-03-01T06:55:32;16.92;;;6.30;;
28960;SDS011;16068;42.896;20.868;2023-03-01T06:58:19;21.52;;;6.10;;
28960;SDS011;16068;42.896;20.868;2023-03-01T07:01:09;18.83;;;6.53;;
28960;SDS011;16068;42.896;20.868;2023-03-01T07:03:55;18.25;;;7.10;;
28960;SDS011;16068;42.896;20.868;2023-03-01T07:06:40;26.00;;;7.45;;
28960;SDS011;16068;42.896;20.868;2023-03-01T07:09:26;25.08;;;8.18;;
28960;SDS011;16068;42.896;20.868;2023-03-01T07:12:12;11.43;;;6.43;;
28960;SDS011;16068;42.896;20.868;2023-03-01T07:14:58;11.93;;;6.30;;
28960;SDS011;16068;42.896;20.868;2023-03-01T07:17:44;16.23;;;6.75;;
28960;SDS011;16068;42.896;20.868;2023-03-01T07:20:33;15.57;;;7.55;;
28960;SDS011;16068;42.896;20.868;2023-03-01T07:23:18;21.85;;;8.15;;
28960;SDS011;16068;42.896;20.868;2023-03-01T07:26:04;24.20;;;8.35;;
28960;SDS011;16068;42.896;20.868;2023-03-01T07:28:51;18.45;;;7.93;;
28960;SDS011;16068;42.896;20.868;2023-03-01T07:31:37;21.30;;;7.50;;
28960;SDS011;16068;42.896;20.868;2023-03-01T07:34:23;23.02;;;8.70;;
28960;SDS011;16068;42.896;20.868;2023-03-01T07:37:10;19.67;;;7.63;;
28960;SDS011;16068;42.896;20.868;2023-03-01T07:40:08;21.45;;;7.80;;
28960;SDS011;16068;42.896;20.868;2023-03-01T07:42:55;16.38;;;7.78;;
28960;SDS011;16068;42.896;20.868;2023-03-01T07:45:42;19.88;;;7.82;;
28960;SDS011;16068;42.896;20.868;2023-03-01T07:48:28;18.52;;;7.30;;
28960;SDS011;16068;42.896;20.868;2023-03-01T07:51:15;23.80;;;7.07;;
28960;SDS011;16068;42.896;20.868;2023-03-01T07:54:02;19.40;;;7.50;;
28960;SDS011;16068;42.896;20.868;2023-03-01T07:56:48;18.83;;;8.02;;
28960;SDS011;16068;42.896;20.868;2023-03-01T07:59:34;24.60;;;8.38;;
28960;SDS011;16068;42.896;20.868;2023-03-01T08:02:20;26.60;;;11.10;;
28960;SDS011;16068;42.896;20.868;2023-03-01T08:05:06;31.77;;;10.00;;
28960;SDS011;16068;42.896;20.868;2023-03-01T08:07:52;22.58;;;8.02;;
28960;SDS011;16068;42.896;20.868;2023-03-01T08:10:39;16.00;;;6.57;;
28960;SDS011;16068;42.896;20.868;2023-03-01T08:13:24;13.13;;;6.88;;
28960;SDS011;16068;42.896;20.868;2023-03-01T08:16:12;20.08;;;7.07;;
28960;SDS011;16068;42.896;20.868;2023-03-01T08:19:03;27.80;;;8.23;;
28960;SDS011;16068;42.896;20.868;2023-03-01T08:21:50;18.20;;;7.22;;
28960;SDS011;16068;42.896;20.868;2023-03-01T08:24:36;12.73;;;6.15;;
28960;SDS011;16068;42.896;20.868;2023-03-01T08:27:22;18.95;;;7.25;;
28960;SDS011;16068;42.896;20.868;2023-03-01T08:30:08;19.80;;;8.18;;
28960;SDS011;16068;42.896;20.868;2023-03-01T08:32:55;17.40;;;7.85;;
28960;SDS011;16068;42.896;20.868;2023-03-01T08:35:41;16.20;;;8.35;;
28960;SDS011;16068;42.896;20.868;2023-03-01T08:38:27;17.65;;;8.50;;
28960;SDS011;16068;42.896;20.868;2023-03-01T08:41:13;18.02;;;8.98;;
28960;SDS011;16068;42.896;20.868;2023-03-01T08:44:00;31.05;;;15.35;;
28960;SDS011;16068;42.896;20.868;2023-03-01T08:46:46;27.70;;;14.35;;
28960;SDS011;16068;42.896;20.868;2023-03-01T08:49:32;36.00;;;15.90;;
28960;SDS011;16068;42.896;20.868;2023-03-01T08:52:21;33.70;;;17.33;;
28960;SDS011;16068;42.896;20.868;2023-03-01T08:55:08;21.05;;;13.35;;
28960;SDS011;16068;42.896;20.868;2023-03-01T08:57:55;24.00;;;13.05;;
28960;SDS011;16068;42.896;20.868;2023-03-01T09:00:41;54.80;;;29.08;;
28960;SDS011;16068;42.896;20.868;2023-03-01T09:03:27;123.15;;;64.20;;
28960;SDS011;16068;42.896;20.868;2023-03-01T09:06:14;76.45;;;39.42;;
28960;SDS011;16068;42.896;20.868;2023-03-01T09:09:01;132.02;;;72.47;;
28960;SDS011;16068;42.896;20.868;2023-03-01T09:11:49;375.15;;;215.50;;
28960;SDS011;16068;42.896;20.868;2023-03-01T09:14:36;158.07;;;84.70;;
28960;SDS011;16068;42.896;20.868;2023-03-01T09:17:23;57.80;;;28.13;;
28960;SDS011;16068;42.896;20.868;2023-03-01T09:20:09;34.97;;;18.30;;
28960;SDS011;16068;42.896;20.868;2023-03-01T09:22:56;29.35;;;14.30;;
28960;SDS011;16068;42.896;20.868;2023-03-01T09:25:42;27.92;;;12.50;;
28960;SDS011;16068;42.896;20.868;2023-03-01T09:28:29;22.33;;;12.18;;
28960;SDS011;16068;42.896;20.868;2023-03-01T09:31:15;24.52;;;13.38;;
28960;SDS011;16068;42.896;20.868;2023-03-01T09:34:02;30.20;;;13.65;;
28960;SDS011;16068;42.896;20.868;2023-03-01T09:36:49;49.38;;;14.75;;
28960;SDS011;16068;42.896;20.868;2023-03-01T09:39:35;23.05;;;11.30;;
28960;SDS011;16068;42.896;20.868;2023-03-01T09:42:21;26.08;;;12.55;;
28960;SDS011;16068;42.896;20.868;2023-03-01T09:45:11;22.10;;;11.48;;
28960;SDS011;16068;42.896;20.868;2023-03-01T09:48:20;25.40;;;12.50;;
28960;SDS011;16068;42.896;20.868;2023-03-01T09:51:16;28.90;;;11.80;;
28960;SDS011;16068;42.896;20.868;2023-03-01T09:54:05;18.42;;;10.25;;
28960;SDS011;16068;42.896;20.868;2023-03-01T10:06:15;35.90;;;11.50;;
28960;SDS011;16068;42.896;20.868;2023-03-01T10:09:19;27.65;;;11.70;;
28960;SDS011;16068;42.896;20.868;2023-03-01T10:12:49;24.88;;;11.70;;
28960;SDS011;16068;42.896;20.868;2023-03-01T10:15:43;23.27;;;11.18;;
28960;SDS011;16068;42.896;20.868;2023-03-01T10:19:00;20.63;;;10.15;;
28960;SDS011;16068;42.896;20.868;2023-03-01T10:21:48;17.25;;;9.45;;
28960;SDS011;16068;42.896;20.868;2023-03-01T10:24:35;20.55;;;10.10;;
28960;SDS011;16068;42.896;20.868;2023-03-01T10:27:25;16.70;;;9.40;;
28960;SDS011;16068;42.896;20.868;2023-03-01T10:30:29;20.02;;;9.43;;
28960;SDS011;16068;42.896;20.868;2023-03-01T10:33:26;16.08;;;9.63;;
28960;SDS011;16068;42.896;20.868;2023-03-01T10:36:13;17.52;;;11.20;;
28960;SDS011;16068;42.896;20.868;2023-03-01T10:38:59;19.63;;;11.55;;
28960;SDS011;16068;42.896;20.868;2023-03-01T10:48:17;27.45;;;10.43;;
28960;SDS011;16068;42.896;20.868;2023-03-01T10:51:12;19.60;;;9.63;;
28960;SDS011;16068;42.896;20.868;2023-03-01T10:54:03;23.75;;;10.85;;
28960;SDS011;16068;42.896;20.868;2023-03-01T10:56:57;21.27;;;11.00;;
28960;SDS011;16068;42.896;20.868;2023-03-01T10:59:45;25.80;;;12.95;;
28960;SDS011;16068;42.896;20.868;2023-03-01T11:02:30;21.33;;;11.93;;
28960;SDS011;16068;42.896;20.868;2023-03-01T11:05:23;22.77;;;11.95;;
28960;SDS011;16068;42.896;20.868;2023-03-01T11:08:09;24.70;;;14.02;;
28960;SDS011;16068;42.896;20.868;2023-03-01T11:11:06;28.67;;;15.73;;
28960;SDS011;16068;42.896;20.868;2023-03-01T11:14:19;27.95;;;15.98;;
28960;SDS011;16068;42.896;20.868;2023-03-01T11:17:12;30.15;;;17.23;;
28960;SDS011;16068;42.896;20.868;2023-03-01T11:20:15;36.13;;;20.15;;
28960;SDS011;16068;42.896;20.868;2023-03-01T11:23:22;35.22;;;18.42;;
28960;SDS011;16068;42.896;20.868;2023-03-01T11:26:09;35.53;;;20.20;;
28960;SDS011;16068;42.896;20.868;2023-03-01T11:28:58;41.70;;;22.02;;
28960;SDS011;16068;42.896;20.868;2023-03-01T11:31:46;30.63;;;18.73;;
28960;SDS011;16068;42.896;20.868;2023-03-01T11:34:47;44.75;;;24.63;;
